createdAt,value
2018-02-09T00:01:33.830Z,115.53
2018-02-09T00:03:37.185Z,117.97
2018-02-09T00:05:40.538Z,116.00
2018-02-09T00:07:44.642Z,114.73
2018-02-09T00:09:48.751Z,123.33
2018-02-09T00:11:52.844Z,105.17
2018-02-09T00:13:56.179Z,115.07
2018-02-09T00:15:59.510Z,110.20
2018-02-09T00:18:03.829Z,111.67
2018-02-09T00:20:07.160Z,110.00
2018-02-09T00:22:13.205Z,121.90
2018-02-09T00:24:16.580Z,110.50
2018-02-09T00:26:19.924Z,123.27
2018-02-09T00:28:23.274Z,119.87
2018-02-09T00:30:27.398Z,121.43
2018-02-09T00:32:30.738Z,121.47
2018-02-09T00:34:34.625Z,115.90
2018-02-09T00:36:38.040Z,127.93
2018-02-09T00:38:41.377Z,112.57
2018-02-09T00:40:44.745Z,115.93
2018-02-09T00:42:48.921Z,121.67
2018-02-09T00:44:52.313Z,113.07
2018-02-09T00:46:56.524Z,119.40
2018-02-09T00:48:59.896Z,126.40
2018-02-09T00:51:04.004Z,116.53
2018-02-09T00:53:07.403Z,116.40
2018-02-09T00:55:10.745Z,109.67
2018-02-09T00:57:14.106Z,113.37
2018-02-09T00:59:17.470Z,115.37
2018-02-09T01:01:20.862Z,117.57
2018-02-09T01:03:25.027Z,119.20
2018-02-09T01:05:29.578Z,115.73
2018-02-09T01:07:32.965Z,114.27
2018-02-09T01:09:36.313Z,116.47
2018-02-09T01:11:41.487Z,120.30
2018-02-09T01:13:44.883Z,116.27
2018-02-09T01:15:48.228Z,123.27
2018-02-09T01:17:51.560Z,120.53
2018-02-09T01:19:55.715Z,122.30
2018-02-09T01:21:59.105Z,114.40
2018-02-09T01:24:02.523Z,119.70
2018-02-09T01:26:06.653Z,124.87
2018-02-09T01:28:10.767Z,113.17
2018-02-09T01:30:14.117Z,115.10
2018-02-09T01:32:17.524Z,111.20
2018-02-09T01:34:20.884Z,127.30
2018-02-09T01:36:25.008Z,120.83
2018-02-09T01:38:28.340Z,115.53
2018-02-09T01:40:32.494Z,118.80
2018-02-09T01:42:35.840Z,125.13
2018-02-09T01:44:39.952Z,118.73
2018-02-09T01:46:44.068Z,123.53
2018-02-09T01:48:48.191Z,125.33
2018-02-09T01:50:51.546Z,130.13
2018-02-09T01:52:55.680Z,119.90
2018-02-09T01:54:59.085Z,130.90
2018-02-09T01:57:02.423Z,125.93
2018-02-09T01:59:05.736Z,122.97
2018-02-09T02:01:09.092Z,110.50
2018-02-09T02:03:12.442Z,119.53
2018-02-09T02:05:16.061Z,106.67
2018-02-09T02:07:19.457Z,117.07
2018-02-09T02:09:22.801Z,124.93
2018-02-09T02:11:27.563Z,121.30
2018-02-09T02:13:30.923Z,120.93
2018-02-09T02:15:34.768Z,128.03
2018-02-09T02:17:38.946Z,117.10
2018-02-09T02:19:42.360Z,112.10
2018-02-09T02:21:45.719Z,132.50
2018-02-09T02:23:49.828Z,123.07
2018-02-09T02:25:53.946Z,117.67
2018-02-09T02:27:58.048Z,117.13
2018-02-09T02:30:01.414Z,106.87
2018-02-09T02:32:04.760Z,110.23
2018-02-09T02:34:08.148Z,104.67
2018-02-09T02:36:11.502Z,112.70
2018-02-09T02:38:15.615Z,132.60
2018-02-09T02:40:19.726Z,109.53
2018-02-09T02:42:23.858Z,109.77
2018-02-09T02:44:27.943Z,109.00
2018-02-09T02:46:31.326Z,110.90
2018-02-09T02:48:34.697Z,113.67
2018-02-09T02:50:38.042Z,104.23
2018-02-09T02:52:42.141Z,116.27
2018-02-09T02:54:46.261Z,110.70
2018-02-09T02:56:49.615Z,115.33
2018-02-09T02:58:52.969Z,118.03
2018-02-09T03:00:57.084Z,115.23
2018-02-09T03:03:00.452Z,117.87
2018-02-09T03:05:03.822Z,126.07
2018-02-09T03:07:07.928Z,117.13
2018-02-09T03:09:11.306Z,106.17
2018-02-09T03:11:15.457Z,118.77
2018-02-09T03:13:18.848Z,117.30
2018-02-09T03:15:22.202Z,120.60
2018-02-09T03:17:25.556Z,129.43
2018-02-09T03:19:28.948Z,126.27
2018-02-09T03:21:32.293Z,112.47
2018-02-09T03:23:35.669Z,118.23
2018-02-09T03:25:39.037Z,121.03
2018-02-09T03:27:42.442Z,108.13
2018-02-09T03:29:45.862Z,117.53
2018-02-09T03:31:49.974Z,117.93
2018-02-09T03:33:53.298Z,114.00
2018-02-09T03:35:56.658Z,116.00
2018-02-09T03:38:00.030Z,114.57
2018-02-09T03:40:04.180Z,118.87
2018-02-09T03:42:08.330Z,113.27
2018-02-09T03:44:11.661Z,117.27
2018-02-09T03:46:15.809Z,109.23
2018-02-09T03:48:19.926Z,110.97
2018-02-09T03:50:23.281Z,119.17
2018-02-09T03:52:27.367Z,130.40
2018-02-09T03:54:30.743Z,121.07
2018-02-09T03:56:34.074Z,125.20
2018-02-09T03:58:37.397Z,112.30
2018-02-09T04:00:40.792Z,117.63
2018-02-09T04:02:44.125Z,114.53
2018-02-09T04:04:48.300Z,116.30
2018-02-09T04:06:51.661Z,113.77
2018-02-09T04:08:55.010Z,126.47
2018-02-09T04:10:59.113Z,114.43
2018-02-09T04:13:02.450Z,118.43
2018-02-09T04:15:05.802Z,107.00
2018-02-09T04:17:09.248Z,111.50
2018-02-09T04:19:12.590Z,115.17
2018-02-09T04:21:16.755Z,125.03
2018-02-09T04:23:20.090Z,125.77
2018-02-09T04:25:23.423Z,128.23
2018-02-09T04:27:26.813Z,114.43
2018-02-09T04:29:30.223Z,121.33
2018-02-09T04:31:33.636Z,112.70
2018-02-09T04:33:37.813Z,129.07
2018-02-09T04:35:41.148Z,123.13
2018-02-09T04:37:44.596Z,132.60
2018-02-09T04:39:48.034Z,117.40
2018-02-09T04:41:51.397Z,132.33
2018-02-09T04:43:54.758Z,122.47
2018-02-09T04:45:58.125Z,128.03
2018-02-09T04:48:01.499Z,124.23
2018-02-09T04:50:04.921Z,120.47
2018-02-09T04:52:09.185Z,113.90
2018-02-09T04:54:12.523Z,116.93
2018-02-09T04:56:16.628Z,117.53
2018-02-09T04:58:20.291Z,117.43
2018-02-09T05:00:23.686Z,121.97
2018-02-09T05:02:27.312Z,119.03
2018-02-09T05:04:30.662Z,128.33
2018-02-09T05:06:34.143Z,116.03
2018-02-09T05:08:37.488Z,118.40
2018-02-09T05:10:42.319Z,117.60
2018-02-09T05:12:46.518Z,124.50
2018-02-09T05:14:49.880Z,129.97
2018-02-09T05:16:53.286Z,137.70
2018-02-09T05:18:56.977Z,127.40
2018-02-09T05:21:00.332Z,122.47
2018-02-09T05:23:03.697Z,123.13
2018-02-09T05:25:07.842Z,139.33
2018-02-09T05:27:11.206Z,138.60
2018-02-09T05:29:14.573Z,117.30
2018-02-09T05:31:17.951Z,129.13
2018-02-09T05:33:21.361Z,127.50
2018-02-09T05:35:24.808Z,119.23
2018-02-09T05:37:28.399Z,120.83
2018-02-09T05:39:31.740Z,124.27
2018-02-09T05:41:35.076Z,123.57
2018-02-09T05:43:38.414Z,127.80
2018-02-09T05:45:41.759Z,139.50
2018-02-09T05:47:45.125Z,138.83
2018-02-09T05:49:49.237Z,152.93
2018-02-09T05:51:52.562Z,130.47
2018-02-09T05:53:56.032Z,151.30
2018-02-09T05:55:59.443Z,146.20
2018-02-09T05:58:02.806Z,135.83
2018-02-09T06:00:06.165Z,144.60
2018-02-09T06:02:09.594Z,163.93
2018-02-09T06:04:12.929Z,152.13
2018-02-09T06:06:16.368Z,144.80
2018-02-09T06:08:20.534Z,144.80
2018-02-09T06:10:23.891Z,143.00
2018-02-09T06:12:27.311Z,148.43
2018-02-09T06:14:30.778Z,135.60
2018-02-09T06:16:34.265Z,150.70
2018-02-09T06:18:38.557Z,153.87
2018-02-09T06:20:42.019Z,132.37
2018-02-09T06:22:45.427Z,148.07
2018-02-09T06:24:49.645Z,149.37
2018-02-09T06:26:53.126Z,137.00
2018-02-09T06:28:56.524Z,153.57
2018-02-09T06:30:59.991Z,144.90
2018-02-09T06:33:03.424Z,147.40
2018-02-09T06:35:06.858Z,148.60
2018-02-09T06:37:10.371Z,149.20
2018-02-09T06:39:14.570Z,132.07
2018-02-09T06:41:18.741Z,126.30
2018-02-09T06:43:22.180Z,135.73
2018-02-09T06:45:25.606Z,127.33
2018-02-09T06:47:29.034Z,153.77
2018-02-09T06:49:34.417Z,131.70
2018-02-09T06:51:37.855Z,120.50
2018-02-09T06:53:41.305Z,115.83
2018-02-09T06:55:44.735Z,120.27
2018-02-09T06:57:52.096Z,121.07
2018-02-09T06:59:56.366Z,110.30
2018-02-09T07:01:59.931Z,122.07
2018-02-09T07:04:03.533Z,108.93
2018-02-09T07:06:07.035Z,109.40
2018-02-09T07:08:10.642Z,110.00
2018-02-09T07:10:14.203Z,100.27
2018-02-09T07:12:17.732Z,119.57
2018-02-09T07:14:21.232Z,90.73
2018-02-09T07:16:24.837Z,88.30
2018-02-09T07:18:28.420Z,91.43
2018-02-09T07:20:32.777Z,94.40
2018-02-09T07:22:37.128Z,86.13
2018-02-09T07:24:40.606Z,87.43
2018-02-09T07:26:44.964Z,97.90
2018-02-09T07:28:48.500Z,88.67
2018-02-09T07:30:51.918Z,85.63
2018-02-09T07:32:55.964Z,96.10
2018-02-09T07:34:59.550Z,88.53
2018-02-09T07:37:03.117Z,94.00
2018-02-09T07:39:07.461Z,96.00
2018-02-09T07:41:11.088Z,87.30
2018-02-09T07:43:14.618Z,93.00
2018-02-09T07:45:19.002Z,89.90
2018-02-09T07:47:22.442Z,96.00
2018-02-09T07:49:25.838Z,103.83
2018-02-09T07:51:29.177Z,95.73
2018-02-09T07:53:32.506Z,99.00
2018-02-09T07:55:35.867Z,94.37
2018-02-09T07:57:39.241Z,98.87
2018-02-09T07:59:42.577Z,87.87
2018-02-09T08:01:45.923Z,95.67
2018-02-09T08:03:49.283Z,88.77
2018-02-09T08:05:52.631Z,101.33
2018-02-09T08:07:55.974Z,87.70
2018-02-09T08:10:00.092Z,91.40
2018-02-09T08:12:04.278Z,95.57
2018-02-09T08:14:08.461Z,92.03
2018-02-09T08:16:11.863Z,109.97
2018-02-09T08:18:15.213Z,100.60
2018-02-09T08:20:18.617Z,94.20
2018-02-09T08:22:22.693Z,96.20
2018-02-09T08:24:26.044Z,95.97
2018-02-09T08:26:29.373Z,100.90
2018-02-09T08:28:32.721Z,111.67
2018-02-09T08:30:36.106Z,98.63
2018-02-09T08:32:39.453Z,99.60
2018-02-09T08:34:43.580Z,107.63
2018-02-09T08:36:47.695Z,92.37
2018-02-09T08:38:51.047Z,104.90
2018-02-09T08:40:54.376Z,95.80
2018-02-09T08:42:57.804Z,114.97
2018-02-09T08:45:02.049Z,105.10
2018-02-09T08:47:05.400Z,95.17
2018-02-09T08:49:08.731Z,106.87
2018-02-09T08:51:12.881Z,102.97
2018-02-09T08:53:16.232Z,109.23
2018-02-09T08:55:20.373Z,94.07
2018-02-09T08:57:23.722Z,107.03
2018-02-09T08:59:27.060Z,103.50
2018-02-09T09:01:30.401Z,107.93
2018-02-09T09:03:33.779Z,114.03
2018-02-09T09:05:37.126Z,105.30
2018-02-09T09:07:40.465Z,102.20
2018-02-09T09:09:43.837Z,106.10
2018-02-09T09:11:47.208Z,99.93
2018-02-09T09:13:50.556Z,114.10
2018-02-09T09:15:53.894Z,103.90
2018-02-09T09:17:57.263Z,108.93
2018-02-09T09:20:01.388Z,96.07
2018-02-09T09:22:04.775Z,100.60
2018-02-09T09:24:08.221Z,113.10
2018-02-09T09:26:11.558Z,97.77
2018-02-09T09:28:14.901Z,104.43
2018-02-09T09:30:18.272Z,97.30
2018-02-09T09:32:21.628Z,97.40
2018-02-09T09:34:25.038Z,93.70
2018-02-09T09:36:28.374Z,103.03
2018-02-09T09:38:31.724Z,109.13
2018-02-09T09:40:35.086Z,93.10
2018-02-09T09:42:40.056Z,90.83
2018-02-09T09:44:45.070Z,87.60
2018-02-09T09:46:48.422Z,96.27
2018-02-09T09:48:51.766Z,83.93
2018-02-09T09:50:55.104Z,79.35
2018-02-09T09:52:59.244Z,86.83
2018-02-09T09:55:02.645Z,91.73
2018-02-09T09:57:06.029Z,88.00
2018-02-09T09:59:09.397Z,87.83
2018-02-09T10:01:19.149Z,93.00
2018-02-09T10:03:22.518Z,84.13
2018-02-09T10:05:25.873Z,94.90
2018-02-09T10:07:29.217Z,105.37
2018-02-09T10:09:33.104Z,94.15
2018-02-09T10:11:36.448Z,93.50
2018-02-09T10:13:39.806Z,92.77
2018-02-09T10:15:43.159Z,108.47
2018-02-09T10:17:46.521Z,95.47
2018-02-09T10:19:49.855Z,101.03
2018-02-09T10:21:53.896Z,104.20
2018-02-09T10:23:57.412Z,91.33
2018-02-09T10:26:00.951Z,108.73
2018-02-09T10:28:05.411Z,94.57
2018-02-09T10:30:09.005Z,106.93
2018-02-09T10:32:12.378Z,94.47
2018-02-09T10:34:16.492Z,111.20
2018-02-09T10:36:19.864Z,105.40
2018-02-09T10:38:23.203Z,97.57
2018-02-09T10:40:26.849Z,95.50
2018-02-09T10:42:30.990Z,94.67
2018-02-09T10:44:35.116Z,104.67
2018-02-09T10:46:38.466Z,97.50
2018-02-09T10:48:41.808Z,93.10
2018-02-09T10:50:45.223Z,92.83
2018-02-09T10:52:49.517Z,95.83
2018-02-09T10:54:52.852Z,97.70
2018-02-09T10:56:56.277Z,93.30
2018-02-09T10:58:59.665Z,97.87
2018-02-09T11:01:03.086Z,100.30
2018-02-09T11:03:06.986Z,90.93
2018-02-09T11:05:10.382Z,77.53
2018-02-09T11:07:13.800Z,90.60
2018-02-09T11:09:22.733Z,105.43
2018-02-09T11:11:26.077Z,94.80
2018-02-09T11:13:35.069Z,92.20
2018-02-09T11:15:38.435Z,93.80
2018-02-09T11:17:41.833Z,100.53
2018-02-09T11:19:46.862Z,79.57
2018-02-09T11:21:50.954Z,84.20
2018-02-09T11:23:54.312Z,81.37
2018-02-09T11:25:57.724Z,89.83
2018-02-09T11:28:01.120Z,78.60
2018-02-09T11:30:04.643Z,86.00
2018-02-09T11:32:08.012Z,84.63
2018-02-09T11:34:11.450Z,83.63
2018-02-09T11:36:15.757Z,80.33
2018-02-09T11:38:19.980Z,93.40
2018-02-09T11:40:23.373Z,83.90
2018-02-09T11:42:27.715Z,81.47
2018-02-09T11:44:31.119Z,84.20
2018-02-09T11:46:35.405Z,82.13
2018-02-09T11:48:38.786Z,83.50
2018-02-09T11:50:43.152Z,87.33
2018-02-09T11:52:47.432Z,84.13
2018-02-09T11:54:51.025Z,78.80
2018-02-09T11:56:55.323Z,77.70
2018-02-09T11:59:00.484Z,68.40
2018-02-09T12:01:04.874Z,74.50
2018-02-09T12:03:08.424Z,78.50
2018-02-09T12:05:11.980Z,84.10
2018-02-09T12:07:15.638Z,68.27
2018-02-09T12:09:19.230Z,79.63
2018-02-09T12:11:24.922Z,76.30
2018-02-09T12:13:28.674Z,82.60
2018-02-09T12:15:32.483Z,77.00
2018-02-09T12:17:36.016Z,82.10
2018-02-09T12:19:39.929Z,88.67
2018-02-09T12:21:43.525Z,83.57
2018-02-09T12:23:47.524Z,86.47
2018-02-09T12:25:51.366Z,85.17
2018-02-09T12:27:54.878Z,85.17
2018-02-09T12:29:58.384Z,84.57
2018-02-09T12:32:02.634Z,91.03
2018-02-09T12:34:07.324Z,93.17
2018-02-09T12:36:11.111Z,78.17
2018-02-09T12:38:14.951Z,87.63
2018-02-09T12:40:18.488Z,81.40
2018-02-09T12:42:22.368Z,87.40
2018-02-09T12:44:26.229Z,85.63
2018-02-09T12:46:30.534Z,100.40
2018-02-09T12:48:35.786Z,98.10
2018-02-09T12:50:40.535Z,76.57
2018-02-09T12:52:45.955Z,95.93
2018-02-09T12:54:49.636Z,89.47
2018-02-09T12:56:53.363Z,88.80
2018-02-09T12:58:57.202Z,82.37
2018-02-09T13:01:00.908Z,87.33
2018-02-09T13:03:04.424Z,92.17
2018-02-09T13:05:12.632Z,92.83
2018-02-09T13:07:17.799Z,88.03
2018-02-09T13:09:22.259Z,98.83
2018-02-09T13:11:26.158Z,92.90
2018-02-09T13:13:32.619Z,93.03
2018-02-09T13:15:36.201Z,92.10
2018-02-09T13:17:39.896Z,80.83
2018-02-09T13:19:43.517Z,89.60
2018-02-09T13:21:48.803Z,84.33
2018-02-09T13:24:04.931Z,101.70
2018-02-09T13:26:09.026Z,92.60
2018-02-09T13:28:26.417Z,87.63
2018-02-09T13:30:29.922Z,76.43
2018-02-09T13:32:45.350Z,82.97
2018-02-09T13:34:50.209Z,94.13
2018-02-09T13:39:44.439Z,77.73
2018-02-09T13:41:48.144Z,93.17
2018-02-09T13:43:52.278Z,90.47
2018-02-09T13:45:55.703Z,100.57
2018-02-09T13:47:59.433Z,93.70
2018-02-09T13:50:03.592Z,84.07
2018-02-09T13:52:08.239Z,86.37
2018-02-09T13:54:12.210Z,82.33
2018-02-09T13:56:15.823Z,85.77
2018-02-09T13:58:19.169Z,96.27
2018-02-09T14:00:23.954Z,87.10
2018-02-09T14:02:27.532Z,98.80
2018-02-09T14:04:31.197Z,78.57
2018-02-09T14:06:35.551Z,93.57
2018-02-09T14:08:39.236Z,87.90
2018-02-09T14:10:43.050Z,92.47
2018-02-09T14:12:46.591Z,90.67
2018-02-09T14:14:50.841Z,90.07
2018-02-09T14:16:54.273Z,100.23
2018-02-09T14:18:58.130Z,88.80
2018-02-09T14:21:02.867Z,96.67
2018-02-09T14:23:06.345Z,93.23
2018-02-09T14:25:09.692Z,93.40
2018-02-09T14:27:15.231Z,105.43
2018-02-09T14:29:19.391Z,94.57
2018-02-09T14:31:24.015Z,97.90
2018-02-09T14:33:29.057Z,90.90
2018-02-09T14:35:32.809Z,100.07
2018-02-09T14:37:37.304Z,95.97
2018-02-09T14:39:44.057Z,89.60
2018-02-09T14:41:48.783Z,107.50
2018-02-09T14:43:53.046Z,86.67
2018-02-09T14:45:56.473Z,85.40
2018-02-09T14:48:00.897Z,99.87
2018-02-09T14:50:05.380Z,78.50
2018-02-09T14:52:10.597Z,94.13
2018-02-09T14:54:14.043Z,93.70
2018-02-09T14:56:17.426Z,101.90
2018-02-09T14:58:20.824Z,104.63
2018-02-09T15:00:25.214Z,98.60
2018-02-09T15:02:33.733Z,89.17
2018-02-09T15:04:37.473Z,108.13
2018-02-09T15:06:40.904Z,94.23
2018-02-09T15:08:45.758Z,103.60
2018-02-09T15:10:54.284Z,118.67
2018-02-09T15:12:59.523Z,87.33
2018-02-09T15:15:04.345Z,97.50
2018-02-09T15:17:08.744Z,88.80
2018-02-09T15:19:16.976Z,100.07
2018-02-09T15:21:20.618Z,101.27
2018-02-09T15:23:24.962Z,102.10
2018-02-09T15:25:28.510Z,90.00
2018-02-09T15:27:32.535Z,100.17
2018-02-09T15:29:35.972Z,101.93
2018-02-09T15:31:41.450Z,93.57
2018-02-09T15:33:46.991Z,102.67
2018-02-09T15:35:51.894Z,101.00
2018-02-09T15:38:00.231Z,90.77
2018-02-09T15:40:05.172Z,95.57
2018-02-09T15:42:09.496Z,102.30
2018-02-09T15:44:13.658Z,96.00
2018-02-09T15:46:19.338Z,97.17
2018-02-09T15:48:22.797Z,88.43
2018-02-09T15:50:26.214Z,85.90
2018-02-09T15:52:30.352Z,83.90
2018-02-09T15:54:34.576Z,86.40
2018-02-09T15:56:38.853Z,90.23
2018-02-09T15:58:42.280Z,107.70
2018-02-09T16:00:46.412Z,88.73
2018-02-09T16:02:50.030Z,101.80
2018-02-09T16:04:53.420Z,90.33
2018-02-09T16:06:57.473Z,99.87
2018-02-09T16:09:00.936Z,94.40
2018-02-09T16:11:04.380Z,91.47
2018-02-09T16:13:08.515Z,91.27
2018-02-09T16:15:16.145Z,92.60
2018-02-09T16:17:20.565Z,88.70
2018-02-09T16:19:24.978Z,86.77
2018-02-09T16:21:29.000Z,99.30
2018-02-09T16:23:32.418Z,90.63
2018-02-09T16:25:35.925Z,95.23
2018-02-09T16:27:39.355Z,91.37
2018-02-09T16:29:42.733Z,92.67
2018-02-09T16:31:46.116Z,90.73
2018-02-09T16:33:49.512Z,87.10
2018-02-09T16:35:52.946Z,92.10
2018-02-09T16:37:56.422Z,88.27
2018-02-09T16:39:59.777Z,88.63
2018-02-09T16:42:03.161Z,105.27
2018-02-09T16:44:07.149Z,93.80
2018-02-09T16:46:10.502Z,83.10
2018-02-09T16:48:14.027Z,89.17
2018-02-09T16:50:18.934Z,136.53
2018-02-09T16:52:22.408Z,85.37
2018-02-09T16:54:26.247Z,90.10
2018-02-09T16:56:29.810Z,86.57
2018-02-09T16:58:33.468Z,93.47
2018-02-09T17:00:37.115Z,95.37
2018-02-09T17:02:40.936Z,84.43
2018-02-09T17:04:45.007Z,85.90
2018-02-09T17:06:48.917Z,89.60
2018-02-09T17:08:53.784Z,82.10
2018-02-09T17:10:57.527Z,100.80
2018-02-09T17:13:02.565Z,94.00
2018-02-09T17:15:08.585Z,95.23
2018-02-09T17:17:12.095Z,81.80
2018-02-09T17:19:15.488Z,93.60
2018-02-09T17:21:18.879Z,90.77
2018-02-09T17:23:22.311Z,98.77
2018-02-09T17:25:27.543Z,98.73
2018-02-09T17:27:32.131Z,80.97
2018-02-09T17:29:35.578Z,95.57
2018-02-09T17:31:39.067Z,86.97
2018-02-09T17:33:42.674Z,86.83
2018-02-09T17:35:46.240Z,84.10
2018-02-09T17:37:49.995Z,88.37
2018-02-09T17:39:53.752Z,90.93
2018-02-09T17:41:57.237Z,94.23
2018-02-09T17:44:00.609Z,87.27
2018-02-09T17:46:04.159Z,85.20
2018-02-09T17:48:08.600Z,88.40
2018-02-09T17:50:12.430Z,88.97
2018-02-09T17:52:16.788Z,96.43
2018-02-09T17:54:20.471Z,92.67
2018-02-09T17:56:23.929Z,100.47
2018-02-09T17:58:27.405Z,98.53
2018-02-09T18:00:31.134Z,88.03
2018-02-09T18:02:34.808Z,83.87
2018-02-09T18:04:38.372Z,85.37
2018-02-09T18:06:42.132Z,87.67
2018-02-09T18:08:46.513Z,93.63
2018-02-09T18:10:50.943Z,97.13
2018-02-09T18:12:55.618Z,88.43
2018-02-09T18:14:59.206Z,84.27
2018-02-09T18:17:04.855Z,103.57
2018-02-09T18:19:09.556Z,92.30
2018-02-09T18:21:13.199Z,88.77
2018-02-09T18:23:16.826Z,92.97
2018-02-09T18:25:23.311Z,81.03
2018-02-09T18:27:27.761Z,81.93
2018-02-09T18:29:31.158Z,89.10
2018-02-09T18:31:34.499Z,85.30
2018-02-09T18:33:38.617Z,85.67
2018-02-09T18:35:42.029Z,82.33
2018-02-09T18:37:45.428Z,73.60
2018-02-09T18:39:48.805Z,87.47
2018-02-09T18:41:52.697Z,78.60
2018-02-09T18:43:56.512Z,88.13
2018-02-09T18:45:59.947Z,88.10
2018-02-09T18:48:03.917Z,92.90
2018-02-09T18:50:08.267Z,83.10
2018-02-09T18:52:11.662Z,69.13
2018-02-09T18:54:15.023Z,78.60
2018-02-09T18:56:18.389Z,78.47
2018-02-09T18:58:21.701Z,82.73
2018-02-09T19:00:25.083Z,86.90
2018-02-09T19:02:29.038Z,85.63
2018-02-09T19:04:32.406Z,85.10
2018-02-09T19:06:35.812Z,78.53
2018-02-09T19:08:39.932Z,69.60
2018-02-09T19:10:43.283Z,76.83
2018-02-09T19:12:46.645Z,72.13
2018-02-09T19:14:50.780Z,84.70
2018-02-09T19:16:54.164Z,77.50
2018-02-09T19:18:57.564Z,83.43
2018-02-09T19:21:02.309Z,85.93
2018-02-09T19:23:07.926Z,73.90
2018-02-09T19:25:11.437Z,81.73
2018-02-09T19:27:14.978Z,71.03
2018-02-09T19:29:19.341Z,70.07
2018-02-09T19:31:22.810Z,78.10
2018-02-09T19:33:28.830Z,71.73
2018-02-09T19:35:32.163Z,84.93
2018-02-09T19:37:36.638Z,73.93
2018-02-09T19:39:40.781Z,69.73
2018-02-09T19:41:44.918Z,79.20
2018-02-09T19:43:48.288Z,82.30
2018-02-09T19:45:51.663Z,70.63
2018-02-09T19:47:55.171Z,74.13
2018-02-09T19:49:58.569Z,77.57
2018-02-09T19:52:02.468Z,76.17
2018-02-09T19:54:05.822Z,69.77
2018-02-09T19:56:09.962Z,80.97
2018-02-09T19:58:13.323Z,78.07
2018-02-09T20:00:17.467Z,69.17
2018-02-09T20:02:21.576Z,74.47
2018-02-09T20:04:25.768Z,67.53
2018-02-09T20:06:29.821Z,65.57
2018-02-09T20:08:36.629Z,65.97
2018-02-09T20:10:43.545Z,73.33
2018-02-09T20:12:50.108Z,70.03
2018-02-09T20:14:54.266Z,63.00
2018-02-09T20:16:59.148Z,70.70
2018-02-09T20:19:03.291Z,68.93
2018-02-09T20:21:11.273Z,68.53
2018-02-09T20:23:15.769Z,73.07
2018-02-09T20:25:19.103Z,68.10
2018-02-09T20:27:22.441Z,65.20
2018-02-09T20:29:25.796Z,71.87
2018-02-09T20:31:29.205Z,66.37
2018-02-09T20:33:33.367Z,70.63
2018-02-09T20:35:38.369Z,69.03
2018-02-09T20:37:42.503Z,69.43
2018-02-09T20:39:45.879Z,74.73
2018-02-09T20:41:49.289Z,67.40
2018-02-09T20:43:52.666Z,80.70
2018-02-09T20:45:56.050Z,76.93
2018-02-09T20:48:00.908Z,79.77
2018-02-09T20:50:04.244Z,73.07
2018-02-09T20:52:07.610Z,73.43
2018-02-09T20:54:10.957Z,73.77
2018-02-09T20:56:14.694Z,69.77
2018-02-09T20:58:18.179Z,69.50
2018-02-09T21:00:21.657Z,58.13
2018-02-09T21:02:26.884Z,72.73
2018-02-09T21:04:31.806Z,69.20
2018-02-09T21:06:35.546Z,69.67
2018-02-09T21:08:39.195Z,78.53
2018-02-09T21:10:42.587Z,79.87
2018-02-09T21:12:46.093Z,80.97
2018-02-09T21:14:49.524Z,86.83
2018-02-09T21:16:53.121Z,69.37
2018-02-09T21:18:57.299Z,73.33
2018-02-09T21:21:00.646Z,73.43
2018-02-09T21:23:04.381Z,74.27
2018-02-09T21:25:07.750Z,76.53
2018-02-09T21:27:11.121Z,73.23
2018-02-09T21:29:14.488Z,81.97
2018-02-09T21:31:18.133Z,72.83
2018-02-09T21:33:22.374Z,77.63
2018-02-09T21:35:26.558Z,69.73
2018-02-09T21:37:30.769Z,74.83
2018-02-09T21:39:34.220Z,81.23
2018-02-09T21:41:37.552Z,70.27
2018-02-09T21:43:41.767Z,71.70
2018-02-09T21:45:45.297Z,78.33
2018-02-09T21:47:49.738Z,65.00
2018-02-09T21:49:53.122Z,85.40
2018-02-09T21:51:57.189Z,66.50
2018-02-09T21:54:01.410Z,66.80
2018-02-09T21:56:05.633Z,67.27
2018-02-09T21:58:10.983Z,67.17
2018-02-09T22:00:14.634Z,72.33
2018-02-09T22:02:19.323Z,75.50
2018-02-09T22:04:23.001Z,82.73
2018-02-09T22:06:26.525Z,70.43
2018-02-09T22:08:29.940Z,85.57
2018-02-09T22:10:33.765Z,87.30
2018-02-09T22:12:37.134Z,79.37
2018-02-09T22:14:40.595Z,69.93
2018-02-09T22:16:45.086Z,74.87
2018-02-09T22:18:49.179Z,90.00
2018-02-09T22:20:52.775Z,78.83
2018-02-09T22:22:57.028Z,81.50
2018-02-09T22:25:00.865Z,79.10
2018-02-09T22:27:04.944Z,78.03
2018-02-09T22:29:08.592Z,73.03
2018-02-09T22:31:13.211Z,79.97
2018-02-09T22:33:16.547Z,78.73
2018-02-09T22:35:20.200Z,71.77
2018-02-09T22:37:23.762Z,75.07
2018-02-09T22:39:27.114Z,68.37
2018-02-09T22:41:31.275Z,66.70
2018-02-09T22:43:34.620Z,65.17
2018-02-09T22:45:38.922Z,62.30
2018-02-09T22:47:43.100Z,67.47
2018-02-09T22:49:46.429Z,70.90
2018-02-09T22:51:50.145Z,73.33
2018-02-09T22:53:55.555Z,70.00
2018-02-09T22:56:00.360Z,75.53
2018-02-09T22:58:04.520Z,64.20
2018-02-09T23:00:08.009Z,74.27
2018-02-09T23:02:11.404Z,68.57
2018-02-09T23:04:15.306Z,74.40
2018-02-09T23:06:18.755Z,68.53
2018-02-09T23:08:22.161Z,66.87
2018-02-09T23:10:25.766Z,72.67
2018-02-09T23:12:29.986Z,62.77
2018-02-09T23:14:33.372Z,66.90
2018-02-09T23:16:36.744Z,65.60
2018-02-09T23:18:40.096Z,70.13
2018-02-09T23:20:43.429Z,73.47
2018-02-09T23:22:46.795Z,64.77
2018-02-09T23:24:51.034Z,57.83
2018-02-09T23:26:54.426Z,69.33
2018-02-09T23:28:58.194Z,69.07
2018-02-09T23:31:01.774Z,63.27
2018-02-09T23:33:05.481Z,70.47
2018-02-09T23:35:08.885Z,62.57
2018-02-09T23:37:12.449Z,67.33
2018-02-09T23:39:15.781Z,67.23
2018-02-09T23:41:19.448Z,70.30
2018-02-09T23:43:22.775Z,71.03
2018-02-09T23:45:26.123Z,65.00
2018-02-09T23:47:29.536Z,62.70
2018-02-09T23:49:32.885Z,63.50
2018-02-09T23:51:37.032Z,68.70
2018-02-09T23:53:40.491Z,67.87
2018-02-09T23:55:44.619Z,64.60
2018-02-09T23:57:48.088Z,63.07
2018-02-09T23:59:51.519Z,68.37
